• Join FlightAware (Why Join?)
  • Login
  • US Flag 
03:11PM EDT


 

Airport Tracker/Info


-or-


 

Live Flight TrackerFlight Track Log ✈ EGF3046 ✈ 31-Jul-2013 ✈ KORD - KSYR

Flight Track Log - Related Links

Times and Time Zones

All times are in EDT time to prevent confusion due to time zone crossing. See the EGF3046 flight status page for this flight to view local times or setup timezone preferences in your user account.

Time Position Orientation Groundspeed Altitude Reporting Facility
EDT Latitude Longitude Course Direction KTS MPH feet Rate Location/Type
03:25PM 41.9667 -87.9500 66° East 186 214 2,000  Level Chicago TRACON
03:26PM 42.0167 -87.9500 360° North 219 252 4,000 1,440 Climbing Chicago TRACON
03:27PM 42.1051 -87.5177 59° Northeast  Level FlightAware Approximate
03:27PM 42.0833 -87.8833 37° Northeast 267 307 5,100  Level Chicago TRACON
03:28PM 42.1587 -87.3908 66° East  Level FlightAware Approximate
03:28PM 42.1197 -87.8400 41° Northeast 260 299 6,600  Level Chicago Center
03:29PM 42.2032 -87.2573 66° East  Level FlightAware Approximate
03:29PM 42.1656 -87.7597 52° Northeast 286 329 8,700  Level Chicago Center
03:30PM 42.2477 -87.1238 66° East  Level FlightAware Approximate
03:30PM 42.1858 -87.6314 78° East 303 349 10,700  Level Chicago Center
03:31PM 42.2058 -87.5108 77° East 326 375 12,000 1,200 Climbing Chicago Center
03:32PM 42.2272 -87.3794 78° East 354 407 13,300 1,320 Climbing Chicago Center
03:33PM 42.2489 -87.2456 78° East 366 421 14,800 1,440 Climbing Chicago Center
03:34PM 42.2711 -87.1111 77° East 367 422 16,300 1,500 Climbing Chicago Center
03:35PM 42.2850 -86.9506 83° East 376 433 17,900 1,380 Climbing Chicago Center
03:36PM 42.2894 -86.8069 88° East 382 440 19,200 1,200 Climbing Chicago Center
03:37PM 42.2947 -86.6586 87° East 393 452 20,400 1,140 Climbing Chicago Center
03:38PM 42.3003 -86.5161 87° East 402 463 21,600 1,260 Climbing Chicago Center
03:39PM 42.3067 -86.3328 87° East 408 470 23,100 1,320 Climbing Chicago Center
03:40PM 42.3117 -86.1794 87° East 411 473 24,400 1,200 Climbing Chicago Center
03:41PM 42.3150 -86.0236 88° East 417 480 25,600 1,200 Climbing Chicago Center
03:42PM 42.3119 -85.8661 91° East 422 486 26,900 1,200 Climbing Chicago Center
03:44PM 42.3103 -85.7086 91° East 423 487 28,100 1,260 Climbing Chicago Center
03:45PM 42.3078 -85.5178 91° East 425 489 29,600 1,260 Climbing Chicago Center
03:46PM 42.3056 -85.3594 91° East 425 489 30,800 660 Climbing Chicago Center
03:47PM 42.3028 -85.1956 91° East 434 499 31,000 60 Climbing Chicago Center
03:48PM 42.2994 -85.0194 91° East 463 533 31,000  Level Chicago Center
03:49PM 42.2956 -84.8364 92° East 485 558 31,000  Level Chicago Center
03:50PM 42.3061 -84.6200 86° East 484 557 31,000  Level Chicago Center
03:51PM 42.3175 -84.4386 85° East 486 559 31,000  Level Chicago Center
03:52PM 42.3328 -84.2644 83° East 472 543 31,000  Level Chicago Center
03:53PM 42.3500 -84.1008 82° East 474 545 31,000  Level Cleveland Center
03:54PM 42.3719 -83.9278 80° East 474 545 31,000  Level Cleveland Center
03:55PM 42.3914 -83.7572 81° East 474 545 31,000  Level Cleveland Center
03:56PM 42.3983 -83.5778 87° East 467 537 31,000  Level Cleveland Center
03:57PM 42.4028 -83.4008 88° East 460 529 31,000  Level Cleveland Center
03:58PM 42.4089 -83.2267 87° East 460 529 31,000  Level Cleveland Center
03:59PM 42.4150 -83.0469 87° East 468 539 31,000  Level Cleveland Center
04:00PM 42.4208 -82.8700 87° East 468 539 31,000  Level Cleveland Center
04:01PM 42.4264 -82.6900 88° East 468 539 31,000  Level Cleveland Center
04:02PM 42.4336 -82.5131 87° East 468 539 31,000  Level Cleveland Center
04:03PM 42.4364 -82.3358 89° East 473 544 31,000  Level Cleveland Center
04:04PM 42.4431 -82.1561 87° East 473 544 31,000  Level Cleveland Center
04:05PM 42.4497 -81.9619 87° East 473 544 31,000  Level Cleveland Center
04:06PM 42.4539 -81.7847 88° East 473 544 31,000  Level Cleveland Center
04:07PM 42.4578 -81.6075 88° East 473 544 31,000  Level Cleveland Center
04:08PM 42.4633 -81.4331 87° East 468 539 31,000  Level Cleveland Center
04:09PM 42.4667 -81.2586 88° East 468 539 31,000  Level Cleveland Center
04:10PM 42.4694 -81.1039 89° East 458 527 31,000  Level Cleveland Center
04:11PM 42.4722 -80.9267 89° East 458 527 31,000  Level Cleveland Center
04:12PM 42.4767 -80.7550 88° East 458 527 31,000  Level Cleveland Center
04:13PM 42.4811 -80.5803 88° East 458 527 31,000  Level Cleveland Center
04:14PM 42.4831 -80.4086 89° East 458 527 31,000  Level Cleveland Center
04:15PM 42.4847 -80.2200 89° East 458 527 31,000  Level Cleveland Center
04:16PM 42.4839 -80.0483 90° East 458 527 31,000 -120 Level Cleveland Center
04:17PM 42.4872 -79.8736 88° East 458 527 30,800 -540 Descending Cleveland Center
04:18PM 42.4861 -79.6936 90° East 463 533 30,000 -840 Descending Cleveland Center
04:19PM 42.4886 -79.5075 89° East 476 548 29,200 -780 Descending Cleveland Center
04:20PM 42.4889 -79.3247 90° East 481 554 28,500 -600 Descending Cleveland Center
04:21PM 42.5200 -79.1436 77° East 487 560 28,000 -300 Descending Cleveland Center
04:22PM 42.5572 -78.9708 74° East 482 555 28,000  Level Cleveland Center
04:23PM 42.5922 -78.7953 75° East 477 549 28,000 -300 Level Cleveland Center
04:24PM 42.6231 -78.6361 75° East 477 549 27,400 -720 Descending Cleveland Center
04:25PM 42.6597 -78.4656 74° East 477 549 26,600 -840 Descending Cleveland Center
04:26PM 42.6939 -78.2922 75° East 477 549 25,800 -840 Descending Cleveland Center
04:27PM 42.7278 -78.1186 75° East 477 549 25,000 -840 Descending Cleveland Center
04:28PM 42.7617 -77.9475 75° East 477 549 24,200 -840 Descending Cleveland Center
04:29PM 42.7953 -77.7847 74° East 458 527 23,400 -900 Descending Cleveland Center
04:30PM 42.8286 -77.6192 75° East 458 527 22,500 -1,020 Descending Cleveland Center
04:31PM 42.8597 -77.4561 75° East 453 521 21,400 -1,800 Descending Cleveland Center
04:32PM 42.8906 -77.2931 75° East 448 516 18,900 -2,520 Descending Cleveland Center
04:34PM 42.9442 -77.0131 75° East 389 448 14,300 -2,520 Descending Boston Center
04:35PM 42.9711 -76.8589 77° East 387 445 11,800 -1,980 Descending Boston Center
04:36PM 43.0031 -76.7333 71° East 338 389 10,400 -1,560 Descending Boston Center
04:37PM 43.0367 -76.6192 68° East 290 334 8,500 -2,100 Descending Boston Center
04:38PM 43.0672 -76.5189 67° East 281 323 6,000 -2,160 Descending Boston Center
04:39PM 43.0936 -76.4269 69° East 271 312 4,200 -1,440 Descending Boston Center
04:40PM 43.1014 -76.3222 84° East 246 283 3,100 -1,200 Descending Boston Center
04:41PM 43.1019 -76.2369 89° East 219 252 1,900 -1,020 Descending Boston Center
04:42PM 43.1061 -76.1744 85° East 146 168 1,100 -840 Descending Boston Center